sensor_id;sensor_type;location;lat;lon;timestamp;P1;durP1;ratioP1;P2;durP2;ratioP2
80840;SDS011;70254;49.200;-122.910;2023-06-01T00:00:56;8.65;;;5.80;;
80840;SDS011;70254;49.200;-122.910;2023-06-01T00:03:32;9.07;;;6.32;;
80840;SDS011;70254;49.200;-122.910;2023-06-01T00:06:31;8.95;;;5.55;;
80840;SDS011;70254;49.200;-122.910;2023-06-01T00:09:30;8.57;;;6.03;;
80840;SDS011;70254;49.200;-122.910;2023-06-01T00:12:18;8.45;;;5.97;;
80840;SDS011;70254;49.200;-122.910;2023-06-01T00:14:48;8.57;;;5.57;;
80840;SDS011;70254;49.200;-122.910;2023-06-01T00:17:36;8.63;;;5.68;;
80840;SDS011;70254;49.200;-122.910;2023-06-01T00:20:26;9.20;;;6.05;;
80840;SDS011;70254;49.200;-122.910;2023-06-01T00:32:29;9.32;;;6.22;;
80840;SDS011;70254;49.200;-122.910;2023-06-01T00:34:59;7.03;;;5.32;;
80840;SDS011;70254;49.200;-122.910;2023-06-01T00:37:29;9.63;;;5.82;;
80840;SDS011;70254;49.200;-122.910;2023-06-01T00:39:59;9.52;;;5.28;;
80840;SDS011;70254;49.200;-122.910;2023-06-01T00:42:30;7.95;;;5.55;;
80840;SDS011;70254;49.200;-122.910;2023-06-01T00:51:37;7.07;;;4.97;;
80840;SDS011;70254;49.200;-122.910;2023-06-01T00:54:18;9.00;;;5.63;;
80840;SDS011;70254;49.200;-122.910;2023-06-01T00:56:46;7.78;;;5.38;;
80840;SDS011;70254;49.200;-122.910;2023-06-01T00:59:15;12.30;;;5.60;;
80840;SDS011;70254;49.200;-122.910;2023-06-01T01:05:10;7.85;;;5.00;;
80840;SDS011;70254;49.200;-122.910;2023-06-01T01:10:43;9.73;;;5.38;;
80840;SDS011;70254;49.200;-122.910;2023-06-01T01:13:32;8.95;;;5.70;;
80840;SDS011;70254;49.200;-122.910;2023-06-01T01:16:07;6.38;;;5.05;;
80840;SDS011;70254;49.200;-122.910;2023-06-01T01:18:53;6.20;;;4.28;;
80840;SDS011;70254;49.200;-122.910;2023-06-01T01:21:29;7.10;;;5.22;;
80840;SDS011;70254;49.200;-122.910;2023-06-01T01:50:10;6.32;;;4.70;;
80840;SDS011;70254;49.200;-122.910;2023-06-01T01:55:26;9.65;;;4.72;;
80840;SDS011;70254;49.200;-122.910;2023-06-01T01:57:58;6.53;;;4.90;;
80840;SDS011;70254;49.200;-122.910;2023-06-01T02:00:28;6.05;;;5.22;;
80840;SDS011;70254;49.200;-122.910;2023-06-01T02:03:00;8.48;;;5.85;;
80840;SDS011;70254;49.200;-122.910;2023-06-01T02:08:54;8.32;;;4.93;;
80840;SDS011;70254;49.200;-122.910;2023-06-01T02:11:24;10.68;;;5.40;;
80840;SDS011;70254;49.200;-122.910;2023-06-01T02:13:53;9.25;;;4.88;;
80840;SDS011;70254;49.200;-122.910;2023-06-01T02:16:23;7.30;;;4.70;;
80840;SDS011;70254;49.200;-122.910;2023-06-01T02:18:55;7.60;;;5.15;;
80840;SDS011;70254;49.200;-122.910;2023-06-01T02:21:29;7.72;;;4.95;;
80840;SDS011;70254;49.200;-122.910;2023-06-01T02:24:19;6.53;;;4.78;;
80840;SDS011;70254;49.200;-122.910;2023-06-01T02:26:58;6.68;;;4.78;;
80840;SDS011;70254;49.200;-122.910;2023-06-01T02:29:33;10.60;;;5.25;;
80840;SDS011;70254;49.200;-122.910;2023-06-01T02:32:00;11.77;;;5.85;;
80840;SDS011;70254;49.200;-122.910;2023-06-01T02:34:33;11.57;;;5.68;;
80840;SDS011;70254;49.200;-122.910;2023-06-01T02:37:18;8.15;;;4.90;;
80840;SDS011;70254;49.200;-122.910;2023-06-01T02:39:54;7.78;;;4.90;;
80840;SDS011;70254;49.200;-122.910;2023-06-01T02:42:24;6.38;;;5.07;;
80840;SDS011;70254;49.200;-122.910;2023-06-01T02:51:42;6.07;;;5.20;;
80840;SDS011;70254;49.200;-122.910;2023-06-01T02:54:09;7.38;;;4.80;;
80840;SDS011;70254;49.200;-122.910;2023-06-01T02:56:39;10.18;;;5.20;;
80840;SDS011;70254;49.200;-122.910;2023-06-01T02:59:19;8.75;;;4.78;;
80840;SDS011;70254;49.200;-122.910;2023-06-01T03:02:09;6.50;;;5.05;;
80840;SDS011;70254;49.200;-122.910;2023-06-01T03:04:48;6.40;;;5.13;;
80840;SDS011;70254;49.200;-122.910;2023-06-01T03:07:18;8.50;;;5.07;;
80840;SDS011;70254;49.200;-122.910;2023-06-01T03:09:45;7.10;;;5.03;;
80840;SDS011;70254;49.200;-122.910;2023-06-01T03:12:28;6.75;;;5.25;;
80840;SDS011;70254;49.200;-122.910;2023-06-01T03:14:55;10.82;;;4.85;;
80840;SDS011;70254;49.200;-122.910;2023-06-01T03:17:30;8.20;;;5.25;;
80840;SDS011;70254;49.200;-122.910;2023-06-01T03:20:02;11.38;;;5.45;;
80840;SDS011;70254;49.200;-122.910;2023-06-01T03:22:29;8.68;;;5.85;;
80840;SDS011;70254;49.200;-122.910;2023-06-01T03:24:55;6.82;;;5.03;;
80840;SDS011;70254;49.200;-122.910;2023-06-01T03:27:25;8.23;;;5.03;;
80840;SDS011;70254;49.200;-122.910;2023-06-01T03:29:55;8.00;;;5.72;;
80840;SDS011;70254;49.200;-122.910;2023-06-01T03:32:24;11.70;;;5.43;;
80840;SDS011;70254;49.200;-122.910;2023-06-01T03:34:51;11.65;;;5.30;;
80840;SDS011;70254;49.200;-122.910;2023-06-01T03:37:21;6.32;;;4.60;;
80840;SDS011;70254;49.200;-122.910;2023-06-01T03:39:51;8.95;;;4.85;;
80840;SDS011;70254;49.200;-122.910;2023-06-01T03:42:24;14.20;;;6.25;;
80840;SDS011;70254;49.200;-122.910;2023-06-01T03:44:51;8.20;;;4.65;;
80840;SDS011;70254;49.200;-122.910;2023-06-01T03:47:18;7.63;;;4.82;;
80840;SDS011;70254;49.200;-122.910;2023-06-01T03:49:45;7.07;;;5.43;;
80840;SDS011;70254;49.200;-122.910;2023-06-01T03:52:12;7.45;;;5.85;;
80840;SDS011;70254;49.200;-122.910;2023-06-01T03:54:41;7.80;;;4.65;;
80840;SDS011;70254;49.200;-122.910;2023-06-01T03:57:14;9.10;;;5.03;;
80840;SDS011;70254;49.200;-122.910;2023-06-01T03:59:44;7.05;;;4.65;;
80840;SDS011;70254;49.200;-122.910;2023-06-01T04:02:10;9.63;;;4.82;;
80840;SDS011;70254;49.200;-122.910;2023-06-01T04:04:50;9.15;;;5.30;;
80840;SDS011;70254;49.200;-122.910;2023-06-01T04:07:21;7.78;;;4.60;;
80840;SDS011;70254;49.200;-122.910;2023-06-01T04:10:00;7.27;;;4.97;;
80840;SDS011;70254;49.200;-122.910;2023-06-01T04:12:27;9.57;;;5.18;;
80840;SDS011;70254;49.200;-122.910;2023-06-01T04:17:45;9.98;;;5.43;;
80840;SDS011;70254;49.200;-122.910;2023-06-01T04:20:13;8.90;;;5.50;;
80840;SDS011;70254;49.200;-122.910;2023-06-01T04:22:42;9.55;;;5.50;;
80840;SDS011;70254;49.200;-122.910;2023-06-01T04:25:09;9.00;;;5.32;;
80840;SDS011;70254;49.200;-122.910;2023-06-01T04:27:41;8.70;;;5.53;;
80840;SDS011;70254;49.200;-122.910;2023-06-01T04:30:10;7.00;;;4.80;;
80840;SDS011;70254;49.200;-122.910;2023-06-01T04:32:41;9.75;;;5.40;;
80840;SDS011;70254;49.200;-122.910;2023-06-01T04:35:09;12.00;;;6.00;;
80840;SDS011;70254;49.200;-122.910;2023-06-01T04:37:37;9.77;;;5.43;;
80840;SDS011;70254;49.200;-122.910;2023-06-01T04:40:08;9.05;;;5.22;;
80840;SDS011;70254;49.200;-122.910;2023-06-01T04:42:36;12.27;;;6.53;;
80840;SDS011;70254;49.200;-122.910;2023-06-01T04:45:07;7.55;;;5.53;;
80840;SDS011;70254;49.200;-122.910;2023-06-01T04:47:39;8.48;;;5.35;;
80840;SDS011;70254;49.200;-122.910;2023-06-01T04:50:06;8.38;;;5.53;;
80840;SDS011;70254;49.200;-122.910;2023-06-01T04:52:39;15.85;;;6.13;;
80840;SDS011;70254;49.200;-122.910;2023-06-01T04:55:07;8.32;;;5.50;;
80840;SDS011;70254;49.200;-122.910;2023-06-01T04:57:34;8.13;;;5.57;;
80840;SDS011;70254;49.200;-122.910;2023-06-01T05:00:04;8.73;;;5.53;;
80840;SDS011;70254;49.200;-122.910;2023-06-01T05:02:39;8.73;;;4.57;;
80840;SDS011;70254;49.200;-122.910;2023-06-01T05:05:10;10.93;;;5.30;;
80840;SDS011;70254;49.200;-122.910;2023-06-01T05:07:40;10.35;;;5.75;;
80840;SDS011;70254;49.200;-122.910;2023-06-01T05:10:08;8.30;;;4.97;;
80840;SDS011;70254;49.200;-122.910;2023-06-01T05:12:36;10.80;;;5.35;;
80840;SDS011;70254;49.200;-122.910;2023-06-01T05:17:33;9.85;;;5.55;;
80840;SDS011;70254;49.200;-122.910;2023-06-01T05:20:01;7.22;;;5.53;;
80840;SDS011;70254;49.200;-122.910;2023-06-01T05:22:29;9.77;;;5.80;;
80840;SDS011;70254;49.200;-122.910;2023-06-01T05:24:55;8.98;;;4.85;;
80840;SDS011;70254;49.200;-122.910;2023-06-01T05:27:23;9.68;;;4.82;;
80840;SDS011;70254;49.200;-122.910;2023-06-01T05:29:49;9.02;;;5.20;;
80840;SDS011;70254;49.200;-122.910;2023-06-01T05:32:18;7.38;;;5.00;;
80840;SDS011;70254;49.200;-122.910;2023-06-01T05:34:47;8.05;;;4.93;;
80840;SDS011;70254;49.200;-122.910;2023-06-01T05:40:37;8.35;;;5.05;;
80840;SDS011;70254;49.200;-122.910;2023-06-01T05:43:04;8.38;;;5.45;;
80840;SDS011;70254;49.200;-122.910;2023-06-01T05:45:32;8.10;;;5.47;;
80840;SDS011;70254;49.200;-122.910;2023-06-01T05:48:02;8.73;;;4.72;;
80840;SDS011;70254;49.200;-122.910;2023-06-01T05:50:29;10.15;;;5.28;;
80840;SDS011;70254;49.200;-122.910;2023-06-01T05:52:56;8.73;;;5.47;;
80840;SDS011;70254;49.200;-122.910;2023-06-01T05:55:25;8.57;;;5.45;;
80840;SDS011;70254;49.200;-122.910;2023-06-01T05:57:54;9.48;;;5.90;;
80840;SDS011;70254;49.200;-122.910;2023-06-01T06:00:25;8.63;;;5.30;;
80840;SDS011;70254;49.200;-122.910;2023-06-01T06:02:52;12.90;;;6.38;;
80840;SDS011;70254;49.200;-122.910;2023-06-01T06:05:21;8.52;;;5.65;;
80840;SDS011;70254;49.200;-122.910;2023-06-01T06:07:48;8.02;;;5.65;;
80840;SDS011;70254;49.200;-122.910;2023-06-01T06:10:14;13.18;;;7.10;;
80840;SDS011;70254;49.200;-122.910;2023-06-01T06:12:41;10.18;;;6.65;;
80840;SDS011;70254;49.200;-122.910;2023-06-01T06:15:07;8.88;;;6.57;;
80840;SDS011;70254;49.200;-122.910;2023-06-01T06:17:34;10.18;;;7.35;;
80840;SDS011;70254;49.200;-122.910;2023-06-01T06:20:01;10.93;;;6.70;;
80840;SDS011;70254;49.200;-122.910;2023-06-01T06:22:32;12.05;;;6.38;;
80840;SDS011;70254;49.200;-122.910;2023-06-01T06:25:01;11.30;;;7.55;;
80840;SDS011;70254;49.200;-122.910;2023-06-01T06:27:28;10.95;;;8.13;;
80840;SDS011;70254;49.200;-122.910;2023-06-01T06:29:54;10.68;;;6.97;;
80840;SDS011;70254;49.200;-122.910;2023-06-01T06:32:21;11.52;;;7.25;;
80840;SDS011;70254;49.200;-122.910;2023-06-01T06:34:50;10.85;;;7.30;;
80840;SDS011;70254;49.200;-122.910;2023-06-01T06:37:19;9.38;;;6.70;;
80840;SDS011;70254;49.200;-122.910;2023-06-01T06:39:46;11.32;;;7.22;;
80840;SDS011;70254;49.200;-122.910;2023-06-01T06:42:12;15.40;;;7.25;;
80840;SDS011;70254;49.200;-122.910;2023-06-01T06:44:39;14.38;;;7.78;;
80840;SDS011;70254;49.200;-122.910;2023-06-01T06:47:06;12.40;;;7.30;;
80840;SDS011;70254;49.200;-122.910;2023-06-01T06:49:32;10.98;;;7.03;;
80840;SDS011;70254;49.200;-122.910;2023-06-01T06:52:02;9.85;;;6.20;;
80840;SDS011;70254;49.200;-122.910;2023-06-01T06:54:28;7.72;;;5.90;;
80840;SDS011;70254;49.200;-122.910;2023-06-01T06:56:55;16.42;;;7.78;;
80840;SDS011;70254;49.200;-122.910;2023-06-01T06:59:22;10.82;;;6.68;;
80840;SDS011;70254;49.200;-122.910;2023-06-01T07:01:49;8.13;;;5.82;;
80840;SDS011;70254;49.200;-122.910;2023-06-01T07:04:18;9.30;;;5.85;;
80840;SDS011;70254;49.200;-122.910;2023-06-01T07:06:54;8.23;;;5.35;;
80840;SDS011;70254;49.200;-122.910;2023-06-01T07:09:28;7.93;;;4.88;;
80840;SDS011;70254;49.200;-122.910;2023-06-01T07:11:57;7.65;;;5.25;;
80840;SDS011;70254;49.200;-122.910;2023-06-01T07:14:24;7.85;;;4.68;;
80840;SDS011;70254;49.200;-122.910;2023-06-01T07:16:53;6.57;;;4.30;;
80840;SDS011;70254;49.200;-122.910;2023-06-01T07:19:23;8.32;;;5.10;;
80840;SDS011;70254;49.200;-122.910;2023-06-01T07:21:49;8.73;;;4.25;;
80840;SDS011;70254;49.200;-122.910;2023-06-01T07:24:19;8.10;;;4.55;;
80840;SDS011;70254;49.200;-122.910;2023-06-01T07:26:46;5.60;;;3.92;;
80840;SDS011;70254;49.200;-122.910;2023-06-01T07:29:14;5.03;;;4.10;;
80840;SDS011;70254;49.200;-122.910;2023-06-01T07:31:49;6.43;;;3.90;;
80840;SDS011;70254;49.200;-122.910;2023-06-01T07:34:17;6.57;;;3.60;;
80840;SDS011;70254;49.200;-122.910;2023-06-01T07:36:45;11.85;;;4.05;;
80840;SDS011;70254;49.200;-122.910;2023-06-01T07:39:13;5.88;;;3.28;;
80840;SDS011;70254;49.200;-122.910;2023-06-01T07:41:40;6.57;;;3.28;;
80840;SDS011;70254;49.200;-122.910;2023-06-01T07:44:19;10.10;;;3.63;;
80840;SDS011;70254;49.200;-122.910;2023-06-01T07:46:49;6.28;;;3.60;;
80840;SDS011;70254;49.200;-122.910;2023-06-01T07:49:16;8.13;;;4.13;;
80840;SDS011;70254;49.200;-122.910;2023-06-01T07:51:42;6.07;;;4.22;;
80840;SDS011;70254;49.200;-122.910;2023-06-01T07:54:10;7.25;;;3.92;;
80840;SDS011;70254;49.200;-122.910;2023-06-01T07:56:38;9.48;;;4.60;;
80840;SDS011;70254;49.200;-122.910;2023-06-01T07:59:05;7.10;;;4.57;;
80840;SDS011;70254;49.200;-122.910;2023-06-01T08:01:31;9.02;;;4.63;;
80840;SDS011;70254;49.200;-122.910;2023-06-01T08:03:58;11.30;;;5.63;;
80840;SDS011;70254;49.200;-122.910;2023-06-01T08:06:27;9.30;;;5.32;;
80840;SDS011;70254;49.200;-122.910;2023-06-01T08:08:54;9.52;;;5.50;;
80840;SDS011;70254;49.200;-122.910;2023-06-01T08:11:20;13.18;;;7.57;;
80840;SDS011;70254;49.200;-122.910;2023-06-01T08:13:48;10.93;;;6.72;;
80840;SDS011;70254;49.200;-122.910;2023-06-01T08:16:16;10.50;;;6.55;;
80840;SDS011;70254;49.200;-122.910;2023-06-01T08:18:42;9.00;;;5.22;;
80840;SDS011;70254;49.200;-122.910;2023-06-01T08:21:09;9.30;;;5.00;;
80840;SDS011;70254;49.200;-122.910;2023-06-01T08:23:39;9.73;;;5.07;;
80840;SDS011;70254;49.200;-122.910;2023-06-01T08:26:06;7.05;;;5.32;;
80840;SDS011;70254;49.200;-122.910;2023-06-01T08:28:36;9.20;;;5.30;;
80840;SDS011;70254;49.200;-122.910;2023-06-01T08:33:29;6.82;;;4.63;;
80840;SDS011;70254;49.200;-122.910;2023-06-01T08:35:59;11.32;;;5.68;;
80840;SDS011;70254;49.200;-122.910;2023-06-01T08:38:25;7.85;;;5.10;;
80840;SDS011;70254;49.200;-122.910;2023-06-01T08:40:57;7.85;;;4.85;;
80840;SDS011;70254;49.200;-122.910;2023-06-01T08:43:26;8.38;;;5.30;;
80840;SDS011;70254;49.200;-122.910;2023-06-01T08:45:55;7.18;;;4.97;;
80840;SDS011;70254;49.200;-122.910;2023-06-01T08:48:25;8.55;;;4.82;;
80840;SDS011;70254;49.200;-122.910;2023-06-01T08:50:55;9.23;;;5.30;;
80840;SDS011;70254;49.200;-122.910;2023-06-01T08:53:25;8.15;;;5.22;;
80840;SDS011;70254;49.200;-122.910;2023-06-01T08:55:56;9.38;;;5.57;;
80840;SDS011;70254;49.200;-122.910;2023-06-01T08:58:22;7.75;;;5.93;;
80840;SDS011;70254;49.200;-122.910;2023-06-01T09:00:50;8.73;;;6.00;;
80840;SDS011;70254;49.200;-122.910;2023-06-01T09:03:19;9.50;;;5.85;;
80840;SDS011;70254;49.200;-122.910;2023-06-01T09:05:46;9.60;;;5.85;;
80840;SDS011;70254;49.200;-122.910;2023-06-01T09:08:15;7.97;;;5.95;;
80840;SDS011;70254;49.200;-122.910;2023-06-01T09:10:45;12.48;;;5.65;;
80840;SDS011;70254;49.200;-122.910;2023-06-01T09:13:11;7.93;;;5.68;;
80840;SDS011;70254;49.200;-122.910;2023-06-01T09:15:50;8.63;;;5.85;;
80840;SDS011;70254;49.200;-122.910;2023-06-01T09:18:23;8.77;;;6.00;;
80840;SDS011;70254;49.200;-122.910;2023-06-01T09:20:49;10.75;;;6.07;;
80840;SDS011;70254;49.200;-122.910;2023-06-01T09:23:25;11.82;;;6.93;;
80840;SDS011;70254;49.200;-122.910;2023-06-01T09:28:55;7.75;;;5.35;;
80840;SDS011;70254;49.200;-122.910;2023-06-01T09:31:40;8.77;;;5.20;;
80840;SDS011;70254;49.200;-122.910;2023-06-01T09:34:17;6.55;;;5.53;;
80840;SDS011;70254;49.200;-122.910;2023-06-01T09:36:46;12.13;;;4.97;;
80840;SDS011;70254;49.200;-122.910;2023-06-01T09:39:14;8.57;;;4.82;;
80840;SDS011;70254;49.200;-122.910;2023-06-01T09:41:49;7.30;;;4.95;;
80840;SDS011;70254;49.200;-122.910;2023-06-01T09:46:53;7.78;;;5.93;;
80840;SDS011;70254;49.200;-122.910;2023-06-01T09:49:29;10.07;;;6.30;;
80840;SDS011;70254;49.200;-122.910;2023-06-01T09:54:32;10.95;;;7.72;;
80840;SDS011;70254;49.200;-122.910;2023-06-01T09:57:01;9.57;;;5.70;;
80840;SDS011;70254;49.200;-122.910;2023-06-01T09:59:28;9.20;;;6.25;;
80840;SDS011;70254;49.200;-122.910;2023-06-01T10:01:57;10.05;;;5.85;;
80840;SDS011;70254;49.200;-122.910;2023-06-01T10:04:24;8.18;;;6.30;;
80840;SDS011;70254;49.200;-122.910;2023-06-01T10:06:56;11.38;;;6.32;;
80840;SDS011;70254;49.200;-122.910;2023-06-01T10:09:23;10.55;;;6.95;;
80840;SDS011;70254;49.200;-122.910;2023-06-01T10:11:53;8.13;;;6.10;;
80840;SDS011;70254;49.200;-122.910;2023-06-01T10:14:24;9.27;;;6.15;;
80840;SDS011;70254;49.200;-122.910;2023-06-01T10:16:51;10.35;;;5.90;;
80840;SDS011;70254;49.200;-122.910;2023-06-01T10:19:21;8.02;;;5.90;;
80840;SDS011;70254;49.200;-122.910;2023-06-01T10:21:51;13.52;;;6.35;;
80840;SDS011;70254;49.200;-122.910;2023-06-01T10:24:18;14.50;;;6.28;;
80840;SDS011;70254;49.200;-122.910;2023-06-01T10:29:26;10.05;;;7.18;;
80840;SDS011;70254;49.200;-122.910;2023-06-01T10:31:56;10.40;;;6.93;;
80840;SDS011;70254;49.200;-122.910;2023-06-01T10:34:59;10.05;;;6.07;;
80840;SDS011;70254;49.200;-122.910;2023-06-01T10:37:21;7.85;;;5.60;;
80840;SDS011;70254;49.200;-122.910;2023-06-01T10:39:48;8.27;;;5.90;;
80840;SDS011;70254;49.200;-122.910;2023-06-01T10:54:53;8.95;;;5.85;;
80840;SDS011;70254;49.200;-122.910;2023-06-01T11:00:10;11.23;;;7.32;;
80840;SDS011;70254;49.200;-122.910;2023-06-01T11:02:49;8.75;;;5.20;;
80840;SDS011;70254;49.200;-122.910;2023-06-01T11:08:49;10.18;;;6.45;;
80840;SDS011;70254;49.200;-122.910;2023-06-01T11:13:34;9.65;;;6.50;;
80840;SDS011;70254;49.200;-122.910;2023-06-01T11:23:55;11.95;;;5.82;;
80840;SDS011;70254;49.200;-122.910;2023-06-01T11:26:47;10.73;;;6.55;;
80840;SDS011;70254;49.200;-122.910;2023-06-01T11:29:18;10.25;;;5.03;;
80840;SDS011;70254;49.200;-122.910;2023-06-01T11:31:57;12.15;;;6.03;;
80840;SDS011;70254;49.200;-122.910;2023-06-01T11:34:32;13.75;;;6.80;;
80840;SDS011;70254;49.200;-122.910;2023-06-01T11:37:04;7.60;;;4.82;;
80840;SDS011;70254;49.200;-122.910;2023-06-01T11:42:11;7.57;;;5.30;;
80840;SDS011;70254;49.200;-122.910;2023-06-01T11:44:42;7.97;;;4.82;;
80840;SDS011;70254;49.200;-122.910;2023-06-01T11:47:13;10.35;;;6.13;;
80840;SDS011;70254;49.200;-122.910;2023-06-01T11:49:43;10.23;;;4.78;;
80840;SDS011;70254;49.200;-122.910;2023-06-01T11:52:14;8.80;;;4.93;;
80840;SDS011;70254;49.200;-122.910;2023-06-01T11:54:47;10.38;;;6.15;;
80840;SDS011;70254;49.200;-122.910;2023-06-01T11:57:19;9.82;;;6.60;;
80840;SDS011;70254;49.200;-122.910;2023-06-01T11:59:47;7.15;;;5.55;;
80840;SDS011;70254;49.200;-122.910;2023-06-01T12:02:24;10.63;;;5.65;;
80840;SDS011;70254;49.200;-122.910;2023-06-01T12:04:56;6.97;;;4.70;;
80840;SDS011;70254;49.200;-122.910;2023-06-01T12:07:43;6.78;;;5.15;;
80840;SDS011;70254;49.200;-122.910;2023-06-01T12:10:11;8.85;;;6.10;;
80840;SDS011;70254;49.200;-122.910;2023-06-01T12:12:42;12.35;;;5.72;;
80840;SDS011;70254;49.200;-122.910;2023-06-01T12:20:33;9.15;;;5.97;;
80840;SDS011;70254;49.200;-122.910;2023-06-01T12:25:50;12.10;;;5.80;;
80840;SDS011;70254;49.200;-122.910;2023-06-01T12:28:22;8.25;;;5.25;;
80840;SDS011;70254;49.200;-122.910;2023-06-01T12:31:13;8.52;;;5.82;;
80840;SDS011;70254;49.200;-122.910;2023-06-01T12:33:43;7.70;;;5.03;;
80840;SDS011;70254;49.200;-122.910;2023-06-01T12:36:11;10.32;;;5.75;;
80840;SDS011;70254;49.200;-122.910;2023-06-01T12:38:54;8.48;;;5.60;;
80840;SDS011;70254;49.200;-122.910;2023-06-01T12:41:22;11.50;;;6.10;;
80840;SDS011;70254;49.200;-122.910;2023-06-01T12:43:49;8.18;;;5.07;;
80840;SDS011;70254;49.200;-122.910;2023-06-01T12:46:20;7.97;;;5.80;;
80840;SDS011;70254;49.200;-122.910;2023-06-01T12:48:54;9.27;;;5.50;;
80840;SDS011;70254;49.200;-122.910;2023-06-01T12:51:40;7.63;;;5.53;;
80840;SDS011;70254;49.200;-122.910;2023-06-01T12:54:09;10.25;;;5.93;;
80840;SDS011;70254;49.200;-122.910;2023-06-01T13:02:08;7.45;;;5.60;;
80840;SDS011;70254;49.200;-122.910;2023-06-01T13:04:41;10.07;;;4.90;;
80840;SDS011;70254;49.200;-122.910;2023-06-01T13:07:10;11.90;;;5.40;;
80840;SDS011;70254;49.200;-122.910;2023-06-01T13:09:37;8.85;;;4.97;;
80840;SDS011;70254;49.200;-122.910;2023-06-01T13:12:04;12.55;;;5.68;;
80840;SDS011;70254;49.200;-122.910;2023-06-01T13:14:34;8.43;;;5.55;;
80840;SDS011;70254;49.200;-122.910;2023-06-01T13:19:31;9.93;;;6.00;;
80840;SDS011;70254;49.200;-122.910;2023-06-01T13:22:00;10.38;;;6.80;;
80840;SDS011;70254;49.200;-122.910;2023-06-01T13:24:26;9.60;;;5.78;;
80840;SDS011;70254;49.200;-122.910;2023-06-01T13:26:54;8.38;;;5.18;;
80840;SDS011;70254;49.200;-122.910;2023-06-01T13:29:27;8.85;;;5.70;;
80840;SDS011;70254;49.200;-122.910;2023-06-01T13:34:36;8.68;;;6.50;;
80840;SDS011;70254;49.200;-122.910;2023-06-01T13:39:36;8.07;;;5.50;;
80840;SDS011;70254;49.200;-122.910;2023-06-01T13:42:03;8.63;;;4.53;;
80840;SDS011;70254;49.200;-122.910;2023-06-01T13:44:33;11.90;;;5.75;;
80840;SDS011;70254;49.200;-122.910;2023-06-01T13:47:00;12.15;;;4.95;;
80840;SDS011;70254;49.200;-122.910;2023-06-01T13:49:30;7.82;;;5.03;;
80840;SDS011;70254;49.200;-122.910;2023-06-01T13:54:29;11.05;;;5.47;;
80840;SDS011;70254;49.200;-122.910;2023-06-01T13:56:56;8.30;;;4.40;;
80840;SDS011;70254;49.200;-122.910;2023-06-01T13:59:23;5.97;;;4.45;;
80840;SDS011;70254;49.200;-122.910;2023-06-01T14:01:49;16.15;;;5.28;;
80840;SDS011;70254;49.200;-122.910;2023-06-01T14:04:16;10.20;;;4.72;;
80840;SDS011;70254;49.200;-122.910;2023-06-01T14:06:44;8.40;;;4.82;;
80840;SDS011;70254;49.200;-122.910;2023-06-01T14:09:10;10.43;;;4.68;;
80840;SDS011;70254;49.200;-122.910;2023-06-01T14:11:37;9.57;;;6.25;;
80840;SDS011;70254;49.200;-122.910;2023-06-01T14:14:08;11.40;;;4.45;;
80840;SDS011;70254;49.200;-122.910;2023-06-01T14:16:35;8.68;;;4.05;;
80840;SDS011;70254;49.200;-122.910;2023-06-01T14:19:05;8.60;;;4.65;;
80840;SDS011;70254;49.200;-122.910;2023-06-01T14:21:31;7.70;;;4.95;;
80840;SDS011;70254;49.200;-122.910;2023-06-01T14:24:05;10.23;;;5.22;;
80840;SDS011;70254;49.200;-122.910;2023-06-01T14:26:31;10.40;;;5.35;;
80840;SDS011;70254;49.200;-122.910;2023-06-01T14:29:01;7.07;;;4.57;;
80840;SDS011;70254;49.200;-122.910;2023-06-01T14:31:28;10.07;;;4.90;;
80840;SDS011;70254;49.200;-122.910;2023-06-01T14:34:00;11.77;;;4.68;;
80840;SDS011;70254;49.200;-122.910;2023-06-01T14:36:27;13.77;;;4.30;;
80840;SDS011;70254;49.200;-122.910;2023-06-01T14:38:57;12.38;;;4.13;;
80840;SDS011;70254;49.200;-122.910;2023-06-01T14:41:27;8.57;;;4.03;;
80840;SDS011;70254;49.200;-122.910;2023-06-01T14:43:54;9.85;;;3.65;;
80840;SDS011;70254;49.200;-122.910;2023-06-01T14:46:23;5.28;;;2.97;;
80840;SDS011;70254;49.200;-122.910;2023-06-01T14:48:50;8.38;;;3.75;;
80840;SDS011;70254;49.200;-122.910;2023-06-01T14:51:19;8.85;;;3.85;;
80840;SDS011;70254;49.200;-122.910;2023-06-01T14:53:46;9.98;;;3.17;;
80840;SDS011;70254;49.200;-122.910;2023-06-01T14:56:24;7.38;;;3.75;;
80840;SDS011;70254;49.200;-122.910;2023-06-01T14:58:56;6.47;;;3.55;;
80840;SDS011;70254;49.200;-122.910;2023-06-01T15:01:23;9.20;;;4.13;;
80840;SDS011;70254;49.200;-122.910;2023-06-01T15:03:49;11.93;;;4.03;;
80840;SDS011;70254;49.200;-122.910;2023-06-01T15:06:16;7.18;;;3.50;;
80840;SDS011;70254;49.200;-122.910;2023-06-01T15:08:46;9.55;;;3.70;;
80840;SDS011;70254;49.200;-122.910;2023-06-01T15:11:15;8.35;;;3.65;;
80840;SDS011;70254;49.200;-122.910;2023-06-01T15:13:44;7.22;;;3.83;;
80840;SDS011;70254;49.200;-122.910;2023-06-01T15:16:11;9.98;;;3.40;;
80840;SDS011;70254;49.200;-122.910;2023-06-01T15:18:37;8.05;;;3.95;;
80840;SDS011;70254;49.200;-122.910;2023-06-01T15:21:14;5.90;;;3.75;;
80840;SDS011;70254;49.200;-122.910;2023-06-01T15:23:41;7.72;;;3.63;;
80840;SDS011;70254;49.200;-122.910;2023-06-01T15:26:07;10.45;;;3.47;;
80840;SDS011;70254;49.200;-122.910;2023-06-01T15:28:38;7.57;;;3.22;;
80840;SDS011;70254;49.200;-122.910;2023-06-01T15:31:07;8.48;;;3.38;;
80840;SDS011;70254;49.200;-122.910;2023-06-01T15:33:39;6.97;;;3.40;;
80840;SDS011;70254;49.200;-122.910;2023-06-01T15:36:12;6.35;;;3.17;;
80840;SDS011;70254;49.200;-122.910;2023-06-01T15:38:47;5.53;;;3.53;;
80840;SDS011;70254;49.200;-122.910;2023-06-01T15:41:20;9.95;;;3.75;;
80840;SDS011;70254;49.200;-122.910;2023-06-01T15:43:46;6.88;;;3.25;;
80840;SDS011;70254;49.200;-122.910;2023-06-01T15:46:17;7.03;;;3.40;;
80840;SDS011;70254;49.200;-122.910;2023-06-01T15:48:50;12.98;;;3.60;;
80840;SDS011;70254;49.200;-122.910;2023-06-01T15:51:21;6.53;;;3.58;;
80840;SDS011;70254;49.200;-122.910;2023-06-01T15:53:47;7.38;;;3.42;;
80840;SDS011;70254;49.200;-122.910;2023-06-01T15:56:21;13.70;;;4.78;;
80840;SDS011;70254;49.200;-122.910;2023-06-01T15:58:48;9.18;;;3.47;;
80840;SDS011;70254;49.200;-122.910;2023-06-01T16:01:18;8.35;;;3.72;;
80840;SDS011;70254;49.200;-122.910;2023-06-01T16:03:48;7.78;;;3.45;;
80840;SDS011;70254;49.200;-122.910;2023-06-01T16:06:14;8.93;;;4.30;;
80840;SDS011;70254;49.200;-122.910;2023-06-01T16:08:44;5.35;;;3.40;;
80840;SDS011;70254;49.200;-122.910;2023-06-01T16:11:10;12.40;;;3.97;;
80840;SDS011;70254;49.200;-122.910;2023-06-01T16:13:38;6.43;;;3.50;;
80840;SDS011;70254;49.200;-122.910;2023-06-01T16:16:10;6.70;;;3.85;;
80840;SDS011;70254;49.200;-122.910;2023-06-01T16:18:37;9.50;;;3.85;;
80840;SDS011;70254;49.200;-122.910;2023-06-01T16:21:04;7.20;;;3.50;;
80840;SDS011;70254;49.200;-122.910;2023-06-01T16:23:33;10.30;;;3.50;;
80840;SDS011;70254;49.200;-122.910;2023-06-01T16:26:00;8.65;;;3.90;;
80840;SDS011;70254;49.200;-122.910;2023-06-01T16:28:33;7.95;;;3.25;;
80840;SDS011;70254;49.200;-122.910;2023-06-01T16:31:03;11.20;;;3.60;;
80840;SDS011;70254;49.200;-122.910;2023-06-01T16:33:32;7.85;;;3.40;;
80840;SDS011;70254;49.200;-122.910;2023-06-01T16:38:25;12.50;;;3.95;;
80840;SDS011;70254;49.200;-122.910;2023-06-01T16:40:54;7.65;;;3.55;;
80840;SDS011;70254;49.200;-122.910;2023-06-01T16:43:24;7.47;;;3.83;;
80840;SDS011;70254;49.200;-122.910;2023-06-01T16:45:55;5.38;;;3.30;;